sensor_id;sensor_type;location;lat;lon;timestamp;pressure;altitude;pressure_sealevel;temperature;humidity
71361;BME280;59166;48.908;1.870;2023-07-13T00:04:10;100469.72;;;16.38;75.70
71361;BME280;59166;48.908;1.870;2023-07-13T00:09:11;100472.22;;;16.35;76.04
71361;BME280;59166;48.908;1.870;2023-07-13T00:14:12;100469.00;;;16.33;75.29
71361;BME280;59166;48.908;1.870;2023-07-13T00:19:15;100467.44;;;16.27;75.17
71361;BME280;59166;48.908;1.870;2023-07-13T00:24:17;100475.91;;;16.25;75.83
71361;BME280;59166;48.908;1.870;2023-07-13T00:29:18;100479.91;;;16.33;75.21
71361;BME280;59166;48.908;1.870;2023-07-13T00:34:21;100478.03;;;16.28;75.25
71361;BME280;59166;48.908;1.870;2023-07-13T00:39:21;100494.72;;;16.27;75.03
71361;BME280;59166;48.908;1.870;2023-07-13T00:44:22;100488.06;;;16.33;75.22
71361;BME280;59166;48.908;1.870;2023-07-13T00:49:27;100479.41;;;16.31;75.32
71361;BME280;59166;48.908;1.870;2023-07-13T00:54:32;100485.06;;;16.34;74.62
71361;BME280;59166;48.908;1.870;2023-07-13T00:59:35;100488.31;;;16.36;74.93
71361;BME280;59166;48.908;1.870;2023-07-13T01:04:38;100491.66;;;16.28;74.38
71361;BME280;59166;48.908;1.870;2023-07-13T01:09:40;100495.31;;;16.24;75.10
71361;BME280;59166;48.908;1.870;2023-07-13T01:14:41;100504.13;;;16.16;75.26
71361;BME280;59166;48.908;1.870;2023-07-13T01:19:44;100508.75;;;16.15;75.69
71361;BME280;59166;48.908;1.870;2023-07-13T01:24:47;100510.97;;;16.13;75.68
71361;BME280;59166;48.908;1.870;2023-07-13T01:29:48;100508.00;;;16.10;75.73
71361;BME280;59166;48.908;1.870;2023-07-13T01:34:49;100511.25;;;16.12;75.82
71361;BME280;59166;48.908;1.870;2023-07-13T01:39:52;100518.06;;;16.14;75.60
71361;BME280;59166;48.908;1.870;2023-07-13T01:44:53;100518.63;;;16.11;76.15
71361;BME280;59166;48.908;1.870;2023-07-13T01:49:54;100513.97;;;16.12;75.71
71361;BME280;59166;48.908;1.870;2023-07-13T01:54:56;100516.75;;;16.07;76.33
71361;BME280;59166;48.908;1.870;2023-07-13T01:59:57;100519.47;;;16.07;76.98
71361;BME280;59166;48.908;1.870;2023-07-13T02:04:57;100521.66;;;16.05;75.25
71361;BME280;59166;48.908;1.870;2023-07-13T02:10:00;100522.47;;;16.05;75.96
71361;BME280;59166;48.908;1.870;2023-07-13T02:15:01;100517.03;;;16.05;75.75
71361;BME280;59166;48.908;1.870;2023-07-13T02:20:02;100507.78;;;16.01;75.15
71361;BME280;59166;48.908;1.870;2023-07-13T02:25:05;100509.50;;;15.97;76.31
71361;BME280;59166;48.908;1.870;2023-07-13T02:30:07;100509.78;;;15.95;76.33
71361;BME280;59166;48.908;1.870;2023-07-13T02:35:09;100505.75;;;15.93;76.88
71361;BME280;59166;48.908;1.870;2023-07-13T02:40:11;100503.28;;;15.91;76.56
71361;BME280;59166;48.908;1.870;2023-07-13T02:45:12;100503.88;;;15.88;77.53
71361;BME280;59166;48.908;1.870;2023-07-13T02:50:13;100504.09;;;15.92;77.20
71361;BME280;59166;48.908;1.870;2023-07-13T02:55:16;100500.09;;;15.84;76.65
71361;BME280;59166;48.908;1.870;2023-07-13T03:00:17;100501.50;;;15.82;77.82
71361;BME280;59166;48.908;1.870;2023-07-13T03:05:18;100505.31;;;15.81;77.88
71361;BME280;59166;48.908;1.870;2023-07-13T03:10:21;100508.63;;;15.78;77.69
71361;BME280;59166;48.908;1.870;2023-07-13T03:15:21;100509.75;;;15.77;78.12
71361;BME280;59166;48.908;1.870;2023-07-13T03:20:22;100520.06;;;15.80;77.98
71361;BME280;59166;48.908;1.870;2023-07-13T03:25:25;100520.69;;;15.95;77.61
71361;BME280;59166;48.908;1.870;2023-07-13T03:30:25;100517.38;;;15.99;77.48
71361;BME280;59166;48.908;1.870;2023-07-13T03:35:26;100519.06;;;15.94;77.66
71361;BME280;59166;48.908;1.870;2023-07-13T03:40:29;100520.34;;;16.02;76.57
71361;BME280;59166;48.908;1.870;2023-07-13T03:45:29;100521.78;;;15.94;77.62
71361;BME280;59166;48.908;1.870;2023-07-13T03:50:30;100525.84;;;15.97;77.82
71361;BME280;59166;48.908;1.870;2023-07-13T03:55:33;100529.03;;;16.04;77.51
71361;BME280;59166;48.908;1.870;2023-07-13T04:00:33;100529.00;;;16.09;77.35
71361;BME280;59166;48.908;1.870;2023-07-13T04:05:34;100538.22;;;16.13;77.85
71361;BME280;59166;48.908;1.870;2023-07-13T04:10:36;100542.38;;;16.06;77.95
71361;BME280;59166;48.908;1.870;2023-07-13T04:15:38;100546.41;;;16.13;77.86
71361;BME280;59166;48.908;1.870;2023-07-13T04:20:40;100546.44;;;16.08;78.12
71361;BME280;59166;48.908;1.870;2023-07-13T04:25:45;100542.63;;;16.09;78.55
71361;BME280;59166;48.908;1.870;2023-07-13T04:30:45;100536.63;;;16.07;79.08
71361;BME280;59166;48.908;1.870;2023-07-13T04:35:46;100536.34;;;16.09;78.94
71361;BME280;59166;48.908;1.870;2023-07-13T04:40:48;100548.03;;;16.14;79.03
71361;BME280;59166;48.908;1.870;2023-07-13T04:45:50;100553.19;;;16.16;79.37
71361;BME280;59166;48.908;1.870;2023-07-13T04:50:55;100568.47;;;16.12;79.71
71361;BME280;59166;48.908;1.870;2023-07-13T04:55:57;100570.13;;;16.13;79.89
71361;BME280;59166;48.908;1.870;2023-07-13T05:01:02;100576.38;;;16.13;80.49
71361;BME280;59166;48.908;1.870;2023-07-13T05:06:04;100586.66;;;16.21;80.63
71361;BME280;59166;48.908;1.870;2023-07-13T05:11:07;100586.34;;;16.23;80.30
71361;BME280;59166;48.908;1.870;2023-07-13T05:16:08;100575.31;;;16.33;80.45
71361;BME280;59166;48.908;1.870;2023-07-13T05:21:09;100584.25;;;16.38;80.53
71361;BME280;59166;48.908;1.870;2023-07-13T05:26:12;100584.69;;;16.45;80.82
71361;BME280;59166;48.908;1.870;2023-07-13T05:31:13;100598.19;;;16.56;79.82
71361;BME280;59166;48.908;1.870;2023-07-13T05:36:14;100595.03;;;16.49;80.59
71361;BME280;59166;48.908;1.870;2023-07-13T05:41:17;100589.34;;;16.45;80.79
71361;BME280;59166;48.908;1.870;2023-07-13T05:46:18;100599.19;;;16.65;80.64
71361;BME280;59166;48.908;1.870;2023-07-13T05:51:24;100600.66;;;16.76;80.87
71361;BME280;59166;48.908;1.870;2023-07-13T05:56:27;100608.56;;;16.77;81.55
71361;BME280;59166;48.908;1.870;2023-07-13T06:01:29;100612.25;;;16.86;81.75
71361;BME280;59166;48.908;1.870;2023-07-13T06:06:30;100614.56;;;16.98;81.69
71361;BME280;59166;48.908;1.870;2023-07-13T06:11:33;100615.22;;;17.09;81.75
71361;BME280;59166;48.908;1.870;2023-07-13T06:16:34;100620.16;;;17.07;82.62
71361;BME280;59166;48.908;1.870;2023-07-13T06:21:35;100632.84;;;17.16;83.26
71361;BME280;59166;48.908;1.870;2023-07-13T06:26:38;100628.34;;;17.07;83.69
71361;BME280;59166;48.908;1.870;2023-07-13T06:31:39;100635.19;;;17.04;83.92
71361;BME280;59166;48.908;1.870;2023-07-13T06:36:40;100634.00;;;17.10;84.11
71361;BME280;59166;48.908;1.870;2023-07-13T06:41:43;100638.31;;;17.16;84.25
71361;BME280;59166;48.908;1.870;2023-07-13T06:46:43;100637.66;;;17.43;83.47
71361;BME280;59166;48.908;1.870;2023-07-13T06:51:44;100637.13;;;17.60;81.96
71361;BME280;59166;48.908;1.870;2023-07-13T06:56:47;100634.97;;;17.89;81.20
71361;BME280;59166;48.908;1.870;2023-07-13T07:01:48;100644.28;;;18.02;80.18
71361;BME280;59166;48.908;1.870;2023-07-13T07:06:49;100637.03;;;18.24;79.44
71361;BME280;59166;48.908;1.870;2023-07-13T07:11:51;100639.09;;;18.46;77.96
71361;BME280;59166;48.908;1.870;2023-07-13T07:16:52;100637.38;;;18.50;77.01
71361;BME280;59166;48.908;1.870;2023-07-13T07:21:53;100637.47;;;18.59;75.03
71361;BME280;59166;48.908;1.870;2023-07-13T07:26:55;100649.91;;;18.78;74.41
71361;BME280;59166;48.908;1.870;2023-07-13T07:31:56;100651.00;;;19.05;72.95
71361;BME280;59166;48.908;1.870;2023-07-13T07:36:59;100652.97;;;19.26;71.55
71361;BME280;59166;48.908;1.870;2023-07-13T07:42:06;100660.03;;;19.41;71.11
71361;BME280;59166;48.908;1.870;2023-07-13T07:47:07;100667.66;;;19.97;70.20
71361;BME280;59166;48.908;1.870;2023-07-13T07:52:08;100667.63;;;20.11;67.07
71361;BME280;59166;48.908;1.870;2023-07-13T07:57:11;100671.38;;;19.92;67.51
71361;BME280;59166;48.908;1.870;2023-07-13T08:02:12;100681.09;;;19.98;67.21
71361;BME280;59166;48.908;1.870;2023-07-13T08:07:13;100669.56;;;19.88;66.72
71361;BME280;59166;48.908;1.870;2023-07-13T08:12:15;100681.69;;;20.18;66.91
71361;BME280;59166;48.908;1.870;2023-07-13T08:17:16;100680.94;;;20.26;64.99
71361;BME280;59166;48.908;1.870;2023-07-13T08:22:17;100681.75;;;20.26;64.11
71361;BME280;59166;48.908;1.870;2023-07-13T08:27:20;100676.56;;;20.25;63.91
71361;BME280;59166;48.908;1.870;2023-07-13T08:32:22;100683.72;;;20.34;63.55
71361;BME280;59166;48.908;1.870;2023-07-13T08:37:24;100679.50;;;20.28;62.76
71361;BME280;59166;48.908;1.870;2023-07-13T08:42:33;100678.09;;;20.39;62.87
71361;BME280;59166;48.908;1.870;2023-07-13T08:47:40;100685.78;;;20.29;62.35
71361;BME280;59166;48.908;1.870;2023-07-13T08:52:45;100678.94;;;20.18;63.71
71361;BME280;59166;48.908;1.870;2023-07-13T08:57:55;100683.69;;;20.26;62.62
71361;BME280;59166;48.908;1.870;2023-07-13T09:03:16;100671.97;;;20.42;62.66
71361;BME280;59166;48.908;1.870;2023-07-13T09:19:57;100685.97;;;20.72;59.36
71361;BME280;59166;48.908;1.870;2023-07-13T09:25:21;100683.06;;;20.77;60.46
71361;BME280;59166;48.908;1.870;2023-07-13T09:30:46;100684.91;;;20.90;59.22
71361;BME280;59166;48.908;1.870;2023-07-13T09:35:55;100676.69;;;20.98;58.62
71361;BME280;59166;48.908;1.870;2023-07-13T09:41:06;100686.25;;;21.10;58.52
71361;BME280;59166;48.908;1.870;2023-07-13T09:46:20;100685.44;;;21.09;58.72
71361;BME280;59166;48.908;1.870;2023-07-13T09:51:34;100690.16;;;21.17;59.19
71361;BME280;59166;48.908;1.870;2023-07-13T09:56:35;100702.28;;;21.25;58.58
71361;BME280;59166;48.908;1.870;2023-07-13T10:01:43;100694.03;;;21.50;57.90
71361;BME280;59166;48.908;1.870;2023-07-13T10:07:05;100695.66;;;21.86;56.02
71361;BME280;59166;48.908;1.870;2023-07-13T10:12:28;100702.13;;;21.90;54.89
71361;BME280;59166;48.908;1.870;2023-07-13T10:17:31;100707.41;;;22.21;54.99
71361;BME280;59166;48.908;1.870;2023-07-13T10:22:39;100710.03;;;22.09;55.23
71361;BME280;59166;48.908;1.870;2023-07-13T10:27:45;100705.16;;;22.23;52.53
71361;BME280;59166;48.908;1.870;2023-07-13T10:32:47;100732.91;;;22.47;52.41
71361;BME280;59166;48.908;1.870;2023-07-13T10:37:57;100728.72;;;22.41;51.18
71361;BME280;59166;48.908;1.870;2023-07-13T10:43:04;100729.06;;;22.39;51.28
71361;BME280;59166;48.908;1.870;2023-07-13T10:48:07;100730.81;;;22.44;52.53
71361;BME280;59166;48.908;1.870;2023-07-13T10:53:21;100727.72;;;22.54;53.08
71361;BME280;59166;48.908;1.870;2023-07-13T10:58:32;100736.63;;;22.60;51.11
71361;BME280;59166;48.908;1.870;2023-07-13T11:03:36;100724.06;;;22.79;49.90
71361;BME280;59166;48.908;1.870;2023-07-13T11:08:52;100713.47;;;22.90;48.98
71361;BME280;59166;48.908;1.870;2023-07-13T11:13:58;100713.38;;;23.36;48.05
71361;BME280;59166;48.908;1.870;2023-07-13T11:19:26;100695.84;;;23.74;45.89
71361;BME280;59166;48.908;1.870;2023-07-13T11:24:49;100703.41;;;23.44;47.07
71361;BME280;59166;48.908;1.870;2023-07-13T11:29:50;100700.88;;;23.10;47.53
71361;BME280;59166;48.908;1.870;2023-07-13T11:34:51;100689.94;;;22.92;47.93
71361;BME280;59166;48.908;1.870;2023-07-13T11:39:55;100696.63;;;23.12;46.86
71361;BME280;59166;48.908;1.870;2023-07-13T11:44:57;100701.63;;;23.19;46.19
71361;BME280;59166;48.908;1.870;2023-07-13T11:49:58;100693.16;;;22.94;47.18
71361;BME280;59166;48.908;1.870;2023-07-13T11:55:02;100700.63;;;23.23;46.76
71361;BME280;59166;48.908;1.870;2023-07-13T12:00:10;100688.69;;;23.61;43.35
71361;BME280;59166;48.908;1.870;2023-07-13T12:05:14;100678.06;;;23.83;43.48
71361;BME280;59166;48.908;1.870;2023-07-13T12:10:20;100690.47;;;23.77;41.65
71361;BME280;59166;48.908;1.870;2023-07-13T12:15:22;100678.59;;;23.65;43.12
71361;BME280;59166;48.908;1.870;2023-07-13T12:20:25;100671.19;;;23.57;43.33
71361;BME280;59166;48.908;1.870;2023-07-13T12:25:29;100670.09;;;23.70;43.61
71361;BME280;59166;48.908;1.870;2023-07-13T12:30:31;100662.06;;;23.77;43.87
71361;BME280;59166;48.908;1.870;2023-07-13T12:35:40;100664.31;;;24.65;42.31
71361;BME280;59166;48.908;1.870;2023-07-13T12:40:45;100665.50;;;24.76;42.26
71361;BME280;59166;48.908;1.870;2023-07-13T12:45:57;100667.09;;;25.53;39.60
71361;BME280;59166;48.908;1.870;2023-07-13T12:51:01;100662.16;;;25.46;39.50
71361;BME280;59166;48.908;1.870;2023-07-13T12:56:04;100657.78;;;25.73;40.60
71361;BME280;59166;48.908;1.870;2023-07-13T13:01:05;100655.97;;;25.65;40.21
71361;BME280;59166;48.908;1.870;2023-07-13T13:06:21;100649.13;;;24.95;40.86
71361;BME280;59166;48.908;1.870;2023-07-13T13:11:26;100655.22;;;24.40;42.67
71361;BME280;59166;48.908;1.870;2023-07-13T13:16:31;100651.72;;;24.07;43.78
71361;BME280;59166;48.908;1.870;2023-07-13T13:21:32;100649.59;;;24.85;43.57
71361;BME280;59166;48.908;1.870;2023-07-13T13:26:35;100645.69;;;24.74;42.28
71361;BME280;59166;48.908;1.870;2023-07-13T13:31:36;100652.22;;;24.45;42.69
71361;BME280;59166;48.908;1.870;2023-07-13T13:36:38;100641.88;;;24.66;42.58
71361;BME280;59166;48.908;1.870;2023-07-13T13:41:40;100637.16;;;24.55;42.42
71361;BME280;59166;48.908;1.870;2023-07-13T13:46:42;100630.03;;;24.41;42.54
71361;BME280;59166;48.908;1.870;2023-07-13T13:51:44;100633.34;;;24.47;43.07
71361;BME280;59166;48.908;1.870;2023-07-13T13:56:48;100630.59;;;24.83;42.58
71361;BME280;59166;48.908;1.870;2023-07-13T14:01:50;100629.91;;;24.74;41.44
71361;BME280;59166;48.908;1.870;2023-07-13T14:06:51;100641.66;;;24.59;41.61
71361;BME280;59166;48.908;1.870;2023-07-13T14:11:53;100634.72;;;24.41;41.81
71361;BME280;59166;48.908;1.870;2023-07-13T14:16:55;100635.75;;;24.97;42.35
71361;BME280;59166;48.908;1.870;2023-07-13T14:21:56;100632.19;;;24.96;40.90
71361;BME280;59166;48.908;1.870;2023-07-13T14:26:58;100628.19;;;24.82;41.92
71361;BME280;59166;48.908;1.870;2023-07-13T14:31:59;100629.81;;;25.23;39.64
71361;BME280;59166;48.908;1.870;2023-07-13T14:37:00;100622.41;;;24.87;40.25
71361;BME280;59166;48.908;1.870;2023-07-13T14:42:03;100612.88;;;24.48;41.48
71361;BME280;59166;48.908;1.870;2023-07-13T14:47:05;100617.94;;;24.46;40.97
71361;BME280;59166;48.908;1.870;2023-07-13T14:52:12;100620.13;;;24.40;41.87
71361;BME280;59166;48.908;1.870;2023-07-13T14:57:16;100603.56;;;24.28;42.01
71361;BME280;59166;48.908;1.870;2023-07-13T15:02:19;100608.25;;;24.28;41.91
71361;BME280;59166;48.908;1.870;2023-07-13T15:07:22;100616.44;;;24.48;42.65
71361;BME280;59166;48.908;1.870;2023-07-13T15:12:24;100613.34;;;24.62;42.44
71361;BME280;59166;48.908;1.870;2023-07-13T15:17:31;100611.25;;;24.59;41.09
71361;BME280;59166;48.908;1.870;2023-07-13T15:22:35;100604.03;;;24.42;41.78
71361;BME280;59166;48.908;1.870;2023-07-13T15:27:37;100596.75;;;24.38;42.06
71361;BME280;59166;48.908;1.870;2023-07-13T15:32:38;100616.19;;;24.29;42.51
71361;BME280;59166;48.908;1.870;2023-07-13T15:37:39;100612.50;;;24.13;42.52
71361;BME280;59166;48.908;1.870;2023-07-13T15:42:43;100606.66;;;24.27;43.11
71361;BME280;59166;48.908;1.870;2023-07-13T15:47:44;100605.59;;;24.07;42.91
71361;BME280;59166;48.908;1.870;2023-07-13T15:52:47;100607.44;;;24.03;43.49
71361;BME280;59166;48.908;1.870;2023-07-13T15:57:51;100602.28;;;24.26;42.20
71361;BME280;59166;48.908;1.870;2023-07-13T16:02:53;100600.31;;;24.50;42.22
71361;BME280;59166;48.908;1.870;2023-07-13T16:07:54;100600.31;;;24.75;43.12
71361;BME280;59166;48.908;1.870;2023-07-13T16:12:57;100603.56;;;24.52;43.91
71361;BME280;59166;48.908;1.870;2023-07-13T16:17:58;100610.22;;;24.39;44.42
71361;BME280;59166;48.908;1.870;2023-07-13T16:22:58;100610.53;;;24.26;44.32
71361;BME280;59166;48.908;1.870;2023-07-13T16:28:01;100607.34;;;24.12;44.95
71361;BME280;59166;48.908;1.870;2023-07-13T16:33:04;100599.56;;;23.93;45.05
71361;BME280;59166;48.908;1.870;2023-07-13T16:38:13;100592.53;;;23.95;45.45
71361;BME280;59166;48.908;1.870;2023-07-13T16:43:18;100586.84;;;24.00;44.87
71361;BME280;59166;48.908;1.870;2023-07-13T16:48:21;100594.28;;;24.00;44.28
71361;BME280;59166;48.908;1.870;2023-07-13T16:53:24;100595.13;;;24.13;43.92
71361;BME280;59166;48.908;1.870;2023-07-13T16:58:28;100591.22;;;24.26;42.34
71361;BME280;59166;48.908;1.870;2023-07-13T17:03:29;100585.47;;;24.31;42.85
71361;BME280;59166;48.908;1.870;2023-07-13T17:08:30;100594.91;;;24.18;41.36
71361;BME280;59166;48.908;1.870;2023-07-13T17:13:32;100598.41;;;23.94;42.08
71361;BME280;59166;48.908;1.870;2023-07-13T17:18:33;100593.78;;;23.74;42.49
71361;BME280;59166;48.908;1.870;2023-07-13T17:23:34;100589.03;;;23.62;42.20
71361;BME280;59166;48.908;1.870;2023-07-13T17:28:37;100592.38;;;23.68;42.54
71361;BME280;59166;48.908;1.870;2023-07-13T17:33:39;100590.31;;;23.65;42.18
71361;BME280;59166;48.908;1.870;2023-07-13T17:38:42;100588.50;;;23.81;43.16
71361;BME280;59166;48.908;1.870;2023-07-13T17:43:45;100585.28;;;23.79;42.31
71361;BME280;59166;48.908;1.870;2023-07-13T17:48:46;100581.44;;;23.59;44.19
71361;BME280;59166;48.908;1.870;2023-07-13T17:53:49;100583.78;;;23.36;44.31
71361;BME280;59166;48.908;1.870;2023-07-13T17:58:51;100578.25;;;23.36;45.52
71361;BME280;59166;48.908;1.870;2023-07-13T18:03:52;100578.00;;;23.29;46.03
71361;BME280;59166;48.908;1.870;2023-07-13T18:08:55;100578.84;;;23.21;46.35
71361;BME280;59166;48.908;1.870;2023-07-13T18:13:57;100578.78;;;23.09;47.18
71361;BME280;59166;48.908;1.870;2023-07-13T18:18:58;100575.44;;;23.04;47.07
71361;BME280;59166;48.908;1.870;2023-07-13T18:24:00;100577.94;;;22.96;48.17
71361;BME280;59166;48.908;1.870;2023-07-13T18:29:02;100582.09;;;22.82;48.42
71361;BME280;59166;48.908;1.870;2023-07-13T18:34:03;100576.91;;;22.60;49.18
71361;BME280;59166;48.908;1.870;2023-07-13T18:39:04;100586.19;;;22.46;50.64
71361;BME280;59166;48.908;1.870;2023-07-13T18:44:06;100590.25;;;22.40;50.38
71361;BME280;59166;48.908;1.870;2023-07-13T18:49:08;100595.16;;;22.35;51.65
71361;BME280;59166;48.908;1.870;2023-07-13T18:54:13;100586.78;;;22.23;51.85
71361;BME280;59166;48.908;1.870;2023-07-13T18:59:15;100585.19;;;22.13;52.79
71361;BME280;59166;48.908;1.870;2023-07-13T19:04:27;100594.00;;;21.98;53.76
71361;BME280;59166;48.908;1.870;2023-07-13T19:09:28;100593.09;;;21.77;54.66
71361;BME280;59166;48.908;1.870;2023-07-13T19:14:30;100590.84;;;21.53;55.44
71361;BME280;59166;48.908;1.870;2023-07-13T19:19:31;100595.56;;;21.35;55.77
71361;BME280;59166;48.908;1.870;2023-07-13T19:24:31;100598.81;;;21.20;55.71
71361;BME280;59166;48.908;1.870;2023-07-13T19:29:33;100596.22;;;21.07;56.26
71361;BME280;59166;48.908;1.870;2023-07-13T19:34:34;100598.66;;;20.91;56.93
71361;BME280;59166;48.908;1.870;2023-07-13T19:39:36;100602.31;;;20.69;57.75
71361;BME280;59166;48.908;1.870;2023-07-13T19:44:39;100603.38;;;20.51;58.03
71361;BME280;59166;48.908;1.870;2023-07-13T19:49:40;100599.00;;;20.41;58.36
71361;BME280;59166;48.908;1.870;2023-07-13T19:54:41;100603.75;;;20.19;59.06
71361;BME280;59166;48.908;1.870;2023-07-13T19:59:43;100597.56;;;20.05;59.71
71361;BME280;59166;48.908;1.870;2023-07-13T20:04:44;100604.94;;;19.95;59.82
71361;BME280;59166;48.908;1.870;2023-07-13T20:09:45;100602.28;;;19.82;60.51
71361;BME280;59166;48.908;1.870;2023-07-13T20:14:49;100602.03;;;19.70;61.11
71361;BME280;59166;48.908;1.870;2023-07-13T20:19:50;100602.72;;;19.53;61.94
71361;BME280;59166;48.908;1.870;2023-07-13T20:24:50;100610.75;;;19.49;62.17
71361;BME280;59166;48.908;1.870;2023-07-13T20:29:52;100618.00;;;19.45;62.44
71361;BME280;59166;48.908;1.870;2023-07-13T20:34:53;100617.94;;;19.37;62.81
71361;BME280;59166;48.908;1.870;2023-07-13T20:39:54;100624.75;;;19.26;63.38
71361;BME280;59166;48.908;1.870;2023-07-13T20:44:56;100625.53;;;19.18;63.67
71361;BME280;59166;48.908;1.870;2023-07-13T20:49:56;100628.69;;;19.11;64.18
71361;BME280;59166;48.908;1.870;2023-07-13T20:54:57;100632.88;;;18.95;64.84
71361;BME280;59166;48.908;1.870;2023-07-13T21:00:00;100632.34;;;18.93;64.94
71361;BME280;59166;48.908;1.870;2023-07-13T21:05:12;100621.31;;;18.84;65.46
71361;BME280;59166;48.908;1.870;2023-07-13T21:10:16;100625.59;;;18.77;65.99
71361;BME280;59166;48.908;1.870;2023-07-13T21:15:21;100615.53;;;18.72;66.50
71361;BME280;59166;48.908;1.870;2023-07-13T21:20:24;100626.06;;;18.79;66.92
71361;BME280;59166;48.908;1.870;2023-07-13T21:25:27;100625.16;;;18.83;66.10
71361;BME280;59166;48.908;1.870;2023-07-13T21:30:35;100621.22;;;18.76;66.67
71361;BME280;59166;48.908;1.870;2023-07-13T21:35:39;100629.66;;;18.66;67.14
71361;BME280;59166;48.908;1.870;2023-07-13T21:40:41;100635.34;;;18.56;67.94
71361;BME280;59166;48.908;1.870;2023-07-13T21:45:44;100630.78;;;18.51;68.21
71361;BME280;59166;48.908;1.870;2023-07-13T21:50:50;100616.00;;;18.38;68.91
71361;BME280;59166;48.908;1.870;2023-07-13T21:55:53;100614.97;;;18.34;69.42
71361;BME280;59166;48.908;1.870;2023-07-13T22:00:56;100614.88;;;18.39;69.37
71361;BME280;59166;48.908;1.870;2023-07-13T22:05:57;100613.97;;;18.44;69.83
71361;BME280;59166;48.908;1.870;2023-07-13T22:11:01;100614.59;;;18.41;69.63
71361;BME280;59166;48.908;1.870;2023-07-13T22:16:14;100619.25;;;18.40;70.02
71361;BME280;59166;48.908;1.870;2023-07-13T22:21:16;100619.25;;;18.40;69.72
71361;BME280;59166;48.908;1.870;2023-07-13T22:26:20;100616.19;;;18.42;69.86
71361;BME280;59166;48.908;1.870;2023-07-13T22:31:22;100613.78;;;18.40;70.08
71361;BME280;59166;48.908;1.870;2023-07-13T22:36:23;100605.84;;;18.39;69.96
71361;BME280;59166;48.908;1.870;2023-07-13T22:41:24;100603.44;;;18.37;70.13
71361;BME280;59166;48.908;1.870;2023-07-13T22:46:29;100604.84;;;18.35;69.98
71361;BME280;59166;48.908;1.870;2023-07-13T22:51:31;100589.03;;;18.32;70.04
71361;BME280;59166;48.908;1.870;2023-07-13T22:56:31;100596.75;;;18.30;69.82
71361;BME280;59166;48.908;1.870;2023-07-13T23:01:37;100578.72;;;18.29;69.66
71361;BME280;59166;48.908;1.870;2023-07-13T23:06:38;100569.69;;;18.28;69.16
71361;BME280;59166;48.908;1.870;2023-07-13T23:11:39;100567.38;;;18.22;69.34
71361;BME280;59166;48.908;1.870;2023-07-13T23:16:42;100568.75;;;18.06;70.18
71361;BME280;59166;48.908;1.870;2023-07-13T23:21:43;100567.66;;;17.93;70.77
71361;BME280;59166;48.908;1.870;2023-07-13T23:26:45;100571.28;;;17.88;71.50
71361;BME280;59166;48.908;1.870;2023-07-13T23:31:48;100577.06;;;17.87;71.46
71361;BME280;59166;48.908;1.870;2023-07-13T23:36:49;100573.91;;;17.80;72.37
71361;BME280;59166;48.908;1.870;2023-07-13T23:41:49;100570.16;;;17.76;72.81
71361;BME280;59166;48.908;1.870;2023-07-13T23:46:53;100564.28;;;17.69;73.37
71361;BME280;59166;48.908;1.870;2023-07-13T23:51:56;100566.75;;;17.52;74.96
71361;BME280;59166;48.908;1.870;2023-07-13T23:56:57;100555.59;;;17.34;75.78
